createdAt,value
2023-05-21T00:00:29.926Z,11.87
2023-05-21T00:02:59.486Z,11.78
2023-05-21T00:05:26.782Z,11.84
2023-05-21T00:07:55.070Z,12.24
2023-05-21T00:10:22.511Z,11.87
2023-05-21T00:12:49.679Z,12.26
2023-05-21T00:15:16.738Z,12.48
2023-05-21T00:17:44.746Z,12.20
2023-05-21T00:20:12.987Z,11.98
2023-05-21T00:22:42.542Z,12.10
2023-05-21T00:25:11.526Z,12.48
2023-05-21T00:27:38.669Z,11.98
2023-05-21T00:30:06.728Z,11.92
2023-05-21T00:32:33.863Z,12.53
2023-05-21T00:35:00.916Z,12.48
2023-05-21T00:37:29.963Z,12.21
2023-05-21T00:39:58.273Z,12.13
2023-05-21T00:42:31.524Z,12.08
2023-05-21T00:44:59.089Z,12.12
2023-05-21T00:47:29.791Z,11.85
2023-05-21T00:49:57.674Z,12.12
2023-05-21T00:52:27.698Z,12.34
2023-05-21T00:54:55.400Z,12.41
2023-05-21T00:57:27.406Z,12.43
2023-05-21T00:59:54.780Z,12.29
2023-05-21T01:02:24.558Z,11.29
2023-05-21T01:04:56.078Z,12.17
2023-05-21T01:07:23.486Z,11.54
2023-05-21T01:09:50.726Z,11.52
2023-05-21T01:12:19.174Z,11.37
2023-05-21T01:14:46.438Z,11.78
2023-05-21T01:17:14.014Z,12.11
2023-05-21T01:19:42.896Z,11.58
2023-05-21T01:22:15.067Z,11.67
2023-05-21T01:24:47.808Z,11.74
2023-05-21T01:27:14.820Z,12.24
2023-05-21T01:29:41.788Z,11.35
2023-05-21T01:32:18.547Z,11.87
2023-05-21T01:34:54.120Z,11.62
2023-05-21T01:37:48.237Z,11.82
2023-05-21T01:40:38.995Z,11.74
2023-05-21T01:43:07.266Z,11.89
2023-05-21T01:45:38.503Z,11.89
2023-05-21T01:48:07.781Z,11.69
2023-05-21T01:50:37.490Z,11.89
2023-05-21T01:53:06.140Z,11.70
2023-05-21T01:55:34.108Z,11.35
2023-05-21T01:58:02.449Z,11.88
2023-05-21T02:00:32.514Z,11.81
2023-05-21T02:02:59.912Z,11.60
2023-05-21T02:05:27.128Z,11.47
2023-05-21T02:07:55.091Z,11.49
2023-05-21T02:10:23.176Z,11.11
2023-05-21T02:12:50.209Z,10.47
2023-05-21T02:15:20.216Z,11.31
2023-05-21T02:17:47.511Z,11.43
2023-05-21T02:20:18.120Z,12.00
2023-05-21T02:22:47.427Z,11.98
2023-05-21T02:25:17.317Z,10.64
2023-05-21T02:27:44.851Z,11.25
2023-05-21T02:30:17.903Z,10.47
2023-05-21T02:32:45.300Z,11.57
2023-05-21T02:35:13.819Z,11.84
2023-05-21T02:37:41.444Z,11.19
2023-05-21T02:40:10.393Z,11.50
2023-05-21T02:42:40.196Z,11.33
2023-05-21T02:45:11.957Z,11.60
2023-05-21T02:47:41.690Z,11.09
2023-05-21T02:50:09.946Z,11.42
2023-05-21T02:52:44.286Z,11.79
2023-05-21T02:55:11.419Z,11.45
2023-05-21T02:57:38.416Z,11.82
2023-05-21T03:00:06.335Z,10.81
2023-05-21T03:02:34.582Z,11.50
2023-05-21T03:05:01.842Z,11.13
2023-05-21T03:07:28.887Z,11.62
2023-05-21T03:09:55.941Z,11.78
2023-05-21T03:12:23.043Z,11.87
2023-05-21T03:14:51.531Z,11.83
2023-05-21T03:17:20.781Z,11.65
2023-05-21T03:19:49.283Z,11.22
2023-05-21T03:22:16.937Z,11.45
2023-05-21T03:24:45.352Z,11.43
2023-05-21T03:27:13.702Z,11.40
2023-05-21T03:29:40.849Z,11.62
2023-05-21T03:32:08.927Z,11.87
2023-05-21T03:34:36.117Z,11.44
2023-05-21T03:37:03.619Z,11.69
2023-05-21T03:39:32.199Z,11.60
2023-05-21T03:41:59.858Z,11.91
2023-05-21T03:44:42.022Z,11.51
2023-05-21T03:47:32.134Z,11.87
2023-05-21T03:50:01.491Z,11.89
2023-05-21T03:52:28.746Z,11.93
2023-05-21T03:54:56.215Z,11.94
2023-05-21T03:57:23.310Z,11.63
2023-05-21T03:59:50.470Z,11.91
2023-05-21T04:02:17.579Z,11.97
2023-05-21T04:04:45.816Z,11.31
2023-05-21T04:07:15.645Z,11.58
2023-05-21T04:09:42.748Z,11.64
2023-05-21T04:12:09.922Z,11.78
2023-05-21T04:14:37.940Z,11.33
2023-05-21T04:17:05.585Z,11.18
2023-05-21T04:19:33.524Z,10.92
2023-05-21T04:22:01.975Z,11.41
2023-05-21T04:24:29.841Z,11.68
2023-05-21T04:27:11.127Z,11.63
2023-05-21T04:29:42.720Z,11.62
2023-05-21T04:32:11.827Z,11.84
2023-05-21T04:34:40.248Z,11.51
2023-05-21T04:37:07.209Z,11.36
2023-05-21T04:39:34.933Z,11.75
2023-05-21T04:42:03.453Z,11.52
2023-05-21T04:44:30.830Z,11.67
2023-05-21T04:47:00.740Z,11.99
2023-05-21T04:49:28.024Z,12.07
2023-05-21T04:51:55.291Z,12.12
2023-05-21T04:54:22.823Z,11.39
2023-05-21T04:56:50.693Z,12.15
2023-05-21T04:59:18.820Z,12.13
2023-05-21T05:01:46.589Z,11.47
2023-05-21T05:04:13.758Z,12.11
2023-05-21T05:06:41.312Z,11.70
2023-05-21T05:09:08.907Z,12.15
2023-05-21T05:11:36.339Z,12.07
2023-05-21T05:14:04.348Z,12.05
2023-05-21T05:16:31.526Z,11.94
2023-05-21T05:19:01.616Z,11.93
2023-05-21T05:21:29.362Z,12.01
2023-05-21T05:23:56.437Z,11.44
2023-05-21T05:26:27.478Z,11.66
2023-05-21T05:28:55.261Z,11.52
2023-05-21T05:31:22.475Z,11.81
2023-05-21T05:33:49.947Z,11.73
2023-05-21T05:36:17.341Z,12.22
2023-05-21T05:38:44.790Z,11.68
2023-05-21T05:41:12.079Z,12.33
2023-05-21T05:43:39.730Z,12.20
2023-05-21T05:46:06.999Z,11.97
2023-05-21T05:48:34.239Z,12.14
2023-05-21T05:51:02.230Z,11.99
2023-05-21T05:53:32.194Z,12.18
2023-05-21T05:56:00.403Z,12.17
2023-05-21T05:58:31.404Z,11.56
2023-05-21T06:01:08.766Z,12.14
2023-05-21T06:03:36.332Z,11.84
2023-05-21T06:06:11.933Z,11.77
2023-05-21T06:08:40.790Z,12.03
2023-05-21T06:11:08.024Z,12.08
2023-05-21T06:13:35.232Z,10.74
2023-05-21T06:16:04.416Z,12.20
2023-05-21T06:18:31.631Z,12.14
2023-05-21T06:20:59.491Z,11.98
2023-05-21T06:23:27.565Z,11.49
2023-05-21T06:25:55.255Z,11.82
2023-05-21T06:28:22.532Z,10.93
2023-05-21T06:30:50.265Z,10.45
2023-05-21T06:33:17.556Z,11.62
2023-05-21T06:35:44.802Z,11.74
2023-05-21T06:38:12.498Z,11.63
2023-05-21T06:40:39.707Z,11.41
2023-05-21T06:43:09.928Z,11.51
2023-05-21T06:45:37.407Z,11.67
2023-05-21T06:48:17.701Z,11.67
2023-05-21T06:50:46.321Z,11.36
2023-05-21T06:53:16.627Z,10.41
2023-05-21T06:55:45.671Z,10.34
2023-05-21T06:58:31.491Z,10.90
2023-05-21T07:00:59.958Z,11.06
2023-05-21T07:03:28.164Z,11.38
2023-05-21T07:05:55.550Z,10.58
2023-05-21T07:08:22.872Z,11.54
2023-05-21T07:10:51.013Z,11.25
2023-05-21T07:13:18.578Z,11.51
2023-05-21T07:15:47.510Z,11.72
2023-05-21T07:18:14.701Z,11.16
2023-05-21T07:20:41.806Z,11.27
2023-05-21T07:23:12.450Z,11.38
2023-05-21T07:25:39.563Z,11.66
2023-05-21T07:28:06.867Z,11.35
2023-05-21T07:30:35.553Z,11.82
2023-05-21T07:33:09.905Z,11.40
2023-05-21T07:35:37.308Z,11.12
2023-05-21T07:38:04.664Z,11.71
2023-05-21T07:40:32.003Z,11.18
2023-05-21T07:42:59.202Z,11.77
2023-05-21T07:45:29.414Z,11.64
2023-05-21T07:47:56.746Z,11.40
2023-05-21T07:50:25.608Z,11.30
2023-05-21T07:52:53.137Z,11.11
2023-05-21T07:55:23.854Z,11.84
2023-05-21T07:57:52.580Z,11.63
2023-05-21T08:00:27.622Z,10.74
2023-05-21T08:02:57.523Z,11.40
2023-05-21T08:05:25.816Z,11.74
2023-05-21T08:07:53.096Z,11.70
2023-05-21T08:10:21.324Z,11.23
2023-05-21T08:12:51.271Z,11.14
2023-05-21T08:15:19.037Z,11.67
2023-05-21T08:17:46.520Z,11.69
2023-05-21T08:20:14.623Z,11.45
2023-05-21T08:22:43.919Z,11.34
2023-05-21T08:25:13.131Z,10.95
2023-05-21T08:27:40.301Z,11.19
2023-05-21T08:30:08.307Z,11.42
2023-05-21T08:32:35.569Z,11.56
2023-05-21T08:35:04.740Z,11.30
2023-05-21T08:37:46.777Z,11.49
2023-05-21T08:40:25.335Z,10.97
2023-05-21T08:42:52.819Z,10.77
2023-05-21T08:45:27.902Z,11.05
2023-05-21T08:47:59.885Z,11.28
2023-05-21T08:50:32.022Z,11.38
2023-05-21T08:53:07.559Z,10.45
2023-05-21T08:55:43.974Z,11.50
2023-05-21T08:58:11.477Z,10.05
2023-05-21T09:00:38.616Z,11.47
2023-05-21T09:03:11.790Z,11.38
2023-05-21T09:05:45.163Z,10.75
2023-05-21T09:08:19.636Z,11.05
2023-05-21T09:11:02.397Z,11.24
2023-05-21T09:13:38.862Z,10.88
2023-05-21T09:16:12.747Z,11.27
2023-05-21T09:18:39.873Z,10.83
2023-05-21T09:21:31.489Z,10.96
2023-05-21T09:24:04.244Z,11.22
2023-05-21T09:26:31.783Z,11.21
2023-05-21T09:29:03.446Z,10.94
2023-05-21T09:31:30.873Z,10.67
2023-05-21T09:33:58.168Z,10.98
2023-05-21T09:36:27.305Z,11.20
2023-05-21T09:39:00.119Z,10.69
2023-05-21T09:42:08.206Z,9.23
2023-05-21T09:44:35.873Z,11.04
2023-05-21T09:47:03.378Z,10.79
2023-05-21T09:49:31.496Z,11.20
2023-05-21T09:52:00.351Z,10.98
2023-05-21T09:54:32.838Z,11.51
2023-05-21T09:57:08.065Z,11.41
2023-05-21T09:59:41.757Z,11.56
2023-05-21T10:02:21.679Z,11.62
2023-05-21T10:04:52.134Z,11.75
2023-05-21T10:07:27.382Z,11.74
2023-05-21T10:09:58.557Z,11.68
2023-05-21T10:12:27.861Z,11.27
2023-05-21T10:15:03.713Z,11.59
2023-05-21T10:17:31.236Z,11.83
2023-05-21T10:20:00.857Z,11.89
2023-05-21T10:22:28.879Z,12.12
2023-05-21T10:24:57.861Z,12.13
2023-05-21T10:27:25.372Z,12.00
2023-05-21T10:29:56.487Z,12.03
2023-05-21T10:32:26.809Z,11.87
2023-05-21T10:34:54.748Z,12.39
2023-05-21T10:37:28.666Z,12.31
2023-05-21T10:39:56.496Z,12.36
2023-05-21T10:42:32.550Z,12.53
2023-05-21T10:45:18.492Z,12.54
2023-05-21T10:48:03.633Z,12.63
2023-05-21T10:50:49.250Z,12.58
2023-05-21T10:53:53.179Z,12.69
2023-05-21T10:57:10.081Z,12.74
2023-05-21T10:59:46.340Z,12.38
2023-05-21T11:02:19.720Z,12.33
2023-05-21T11:04:49.437Z,12.81
2023-05-21T11:07:24.749Z,12.67
2023-05-21T11:09:51.910Z,12.37
2023-05-21T11:12:23.317Z,12.44
2023-05-21T11:14:58.054Z,12.59
2023-05-21T11:17:42.197Z,12.72
2023-05-21T11:20:14.111Z,12.56
2023-05-21T11:22:41.283Z,12.03
2023-05-21T11:25:08.721Z,12.27
2023-05-21T11:27:41.146Z,12.90
2023-05-21T11:30:20.170Z,12.84
2023-05-21T11:33:10.982Z,12.92
2023-05-21T11:35:50.394Z,12.86
2023-05-21T11:38:18.572Z,12.73
2023-05-21T11:40:55.369Z,12.80
2023-05-21T11:43:22.804Z,12.64
2023-05-21T11:45:53.018Z,12.63
2023-05-21T11:48:22.584Z,12.63
2023-05-21T11:50:51.058Z,12.29
2023-05-21T11:53:18.094Z,12.45
2023-05-21T11:55:47.521Z,12.55
2023-05-21T11:58:16.742Z,12.90
2023-05-21T12:00:45.616Z,12.83
2023-05-21T12:03:14.807Z,12.95
2023-05-21T12:05:49.423Z,12.63
2023-05-21T12:08:25.725Z,12.55
2023-05-21T12:11:00.532Z,12.96
2023-05-21T12:13:28.416Z,12.54
2023-05-21T12:15:55.650Z,12.61
2023-05-21T12:18:22.863Z,12.43
2023-05-21T12:20:52.277Z,12.45
2023-05-21T12:23:28.522Z,12.66
2023-05-21T12:25:56.466Z,12.59
2023-05-21T12:28:24.989Z,12.96
2023-05-21T12:30:53.799Z,12.75
2023-05-21T12:33:23.129Z,11.71
2023-05-21T12:35:52.725Z,12.88
2023-05-21T12:38:20.077Z,12.79
2023-05-21T12:40:47.811Z,12.56
2023-05-21T12:43:15.006Z,12.51
2023-05-21T12:45:43.730Z,12.70
2023-05-21T12:48:12.213Z,11.74
2023-05-21T12:50:41.153Z,12.45
2023-05-21T12:53:10.270Z,13.18
2023-05-21T12:55:40.894Z,12.73
2023-05-21T12:58:13.811Z,12.82
2023-05-21T13:00:43.171Z,13.12
2023-05-21T13:03:10.297Z,12.88
2023-05-21T13:05:41.616Z,13.21
2023-05-21T13:08:10.790Z,13.28
2023-05-21T13:10:38.365Z,13.33
2023-05-21T13:13:05.694Z,12.65
2023-05-21T13:15:33.268Z,12.20
2023-05-21T13:18:01.642Z,13.38
2023-05-21T13:20:29.647Z,13.31
2023-05-21T13:22:56.802Z,13.32
2023-05-21T13:25:28.816Z,12.92
2023-05-21T13:27:58.409Z,13.32
2023-05-21T13:30:25.596Z,13.10
2023-05-21T13:32:52.852Z,12.95
2023-05-21T13:35:20.083Z,12.63
2023-05-21T13:37:47.244Z,13.29
2023-05-21T13:40:15.836Z,12.89
2023-05-21T13:42:44.256Z,13.17
2023-05-21T13:45:13.141Z,13.26
2023-05-21T13:47:40.943Z,13.35
2023-05-21T13:50:09.430Z,13.44
2023-05-21T13:52:37.179Z,13.00
2023-05-21T13:55:04.683Z,13.33
2023-05-21T13:57:31.862Z,13.05
2023-05-21T14:00:00.196Z,13.46
2023-05-21T14:02:27.635Z,13.64
2023-05-21T14:04:54.812Z,13.16
2023-05-21T14:07:22.347Z,13.67
2023-05-21T14:09:49.626Z,13.42
2023-05-21T14:12:17.412Z,13.73
2023-05-21T14:14:44.960Z,13.77
2023-05-21T14:17:12.251Z,13.80
2023-05-21T14:19:39.834Z,13.91
2023-05-21T14:22:07.097Z,13.67
2023-05-21T14:24:34.152Z,13.46
2023-05-21T14:27:01.360Z,13.13
2023-05-21T14:29:28.428Z,13.76
2023-05-21T14:31:55.727Z,13.35
2023-05-21T14:34:22.968Z,13.90
2023-05-21T14:36:49.988Z,13.71
2023-05-21T14:39:17.521Z,13.69
2023-05-21T14:41:44.694Z,13.50
2023-05-21T14:44:12.608Z,13.60
2023-05-21T14:46:39.959Z,13.30
2023-05-21T14:49:06.926Z,13.63
2023-05-21T14:51:34.041Z,13.59
2023-05-21T14:54:01.302Z,13.85
2023-05-21T14:56:28.402Z,13.80
2023-05-21T14:58:56.538Z,13.54
2023-05-21T15:01:23.879Z,13.70
2023-05-21T15:03:57.004Z,13.30
2023-05-21T15:06:24.581Z,13.38
2023-05-21T15:08:51.755Z,13.49
2023-05-21T15:11:18.824Z,13.25
2023-05-21T15:13:46.691Z,13.29
2023-05-21T15:16:13.909Z,13.54
2023-05-21T15:18:41.011Z,13.67
2023-05-21T15:21:08.322Z,13.52
2023-05-21T15:23:35.436Z,13.67
2023-05-21T15:26:02.577Z,13.51
2023-05-21T15:28:29.717Z,13.67
2023-05-21T15:30:56.878Z,13.63
2023-05-21T15:33:23.985Z,13.31
2023-05-21T15:35:51.140Z,13.17
2023-05-21T15:38:18.269Z,13.60
2023-05-21T15:40:45.316Z,13.43
2023-05-21T15:43:12.257Z,13.79
2023-05-21T15:45:39.755Z,13.99
2023-05-21T15:48:13.419Z,13.92
2023-05-21T15:50:40.665Z,13.74
2023-05-21T15:53:07.722Z,13.93
2023-05-21T15:55:35.169Z,13.91
2023-05-21T15:58:03.804Z,13.64
2023-05-21T16:00:30.875Z,13.87
2023-05-21T16:02:58.018Z,13.91
2023-05-21T16:05:25.957Z,13.50
2023-05-21T16:07:53.219Z,13.92
2023-05-21T16:10:21.654Z,13.27
2023-05-21T16:12:48.843Z,13.97
2023-05-21T16:15:16.136Z,13.95
2023-05-21T16:17:43.270Z,14.20
2023-05-21T16:20:10.862Z,14.02
2023-05-21T16:22:38.027Z,14.02
2023-05-21T16:25:05.688Z,13.77
2023-05-21T16:27:32.817Z,13.54
2023-05-21T16:30:00.017Z,13.69
2023-05-21T16:32:28.613Z,13.33
2023-05-21T16:34:55.852Z,13.99
2023-05-21T16:37:22.958Z,13.91
2023-05-21T16:39:50.235Z,13.36
2023-05-21T16:42:17.463Z,13.79
2023-05-21T16:44:44.951Z,13.38
2023-05-21T16:47:12.123Z,13.73
2023-05-21T16:49:41.495Z,13.88
2023-05-21T16:52:09.494Z,13.75
2023-05-21T16:54:36.582Z,13.92
2023-05-21T16:57:03.782Z,14.07
2023-05-21T16:59:38.428Z,13.56
2023-05-21T17:02:05.764Z,13.82
2023-05-21T17:04:32.850Z,13.98
2023-05-21T17:06:59.972Z,13.98
2023-05-21T17:09:27.113Z,13.89
2023-05-21T17:11:54.314Z,13.98
2023-05-21T17:14:33.225Z,13.56
2023-05-21T17:17:01.398Z,13.71
2023-05-21T17:19:28.748Z,13.93
2023-05-21T17:21:56.540Z,13.61
2023-05-21T17:24:23.743Z,14.00
2023-05-21T17:26:50.974Z,13.75
2023-05-21T17:29:18.768Z,13.96
2023-05-21T17:31:45.939Z,13.83
2023-05-21T17:34:13.151Z,13.63
2023-05-21T17:36:40.130Z,13.72
2023-05-21T17:39:07.182Z,14.01
2023-05-21T17:41:34.417Z,13.90
2023-05-21T17:44:01.507Z,13.86
2023-05-21T17:46:28.577Z,13.44
2023-05-21T17:48:55.766Z,13.33
2023-05-21T17:51:22.864Z,13.82
2023-05-21T17:53:50.503Z,13.61
2023-05-21T17:56:17.516Z,13.63
2023-05-21T17:58:44.533Z,13.84
2023-05-21T18:01:11.941Z,13.41
2023-05-21T18:03:39.315Z,13.27
2023-05-21T18:06:08.194Z,13.56
2023-05-21T18:08:36.482Z,13.18
2023-05-21T18:11:03.854Z,13.61
2023-05-21T18:13:31.203Z,13.33
2023-05-21T18:15:59.264Z,13.49
2023-05-21T18:18:26.396Z,13.04
2023-05-21T18:20:53.461Z,13.59
2023-05-21T18:23:20.936Z,13.41
2023-05-21T18:25:48.176Z,13.53
2023-05-21T18:28:15.215Z,13.27
2023-05-21T18:30:42.449Z,13.10
2023-05-21T18:33:09.629Z,13.45
2023-05-21T18:35:36.764Z,13.34
2023-05-21T18:38:04.388Z,13.30
2023-05-21T18:40:33.335Z,13.38
2023-05-21T18:43:00.849Z,13.40
2023-05-21T18:45:28.106Z,13.35
2023-05-21T18:47:56.191Z,13.07
2023-05-21T18:50:23.250Z,13.17
2023-05-21T18:52:53.960Z,12.72
2023-05-21T18:55:21.184Z,13.13
2023-05-21T18:57:48.682Z,12.84
2023-05-21T19:00:16.082Z,12.12
2023-05-21T19:02:44.335Z,12.65
2023-05-21T19:05:12.018Z,13.22
2023-05-21T19:07:41.357Z,12.88
2023-05-21T19:10:09.341Z,12.98
2023-05-21T19:12:36.520Z,12.78
2023-05-21T19:15:04.362Z,13.05
2023-05-21T19:17:31.696Z,13.11
2023-05-21T19:19:58.944Z,12.79
2023-05-21T19:22:27.199Z,12.72
2023-05-21T19:24:54.570Z,12.50
2023-05-21T19:27:22.125Z,12.28
2023-05-21T19:29:49.242Z,12.84
2023-05-21T19:32:16.905Z,12.79
2023-05-21T19:34:43.954Z,12.44
2023-05-21T19:37:11.003Z,11.70
2023-05-21T19:39:39.512Z,12.31
2023-05-21T19:42:07.812Z,12.24
2023-05-21T19:44:34.983Z,12.35
2023-05-21T19:47:03.447Z,12.27
2023-05-21T19:49:30.780Z,12.30
2023-05-21T19:51:58.435Z,12.58
2023-05-21T19:54:25.956Z,12.28
2023-05-21T19:56:53.107Z,12.57
2023-05-21T19:59:20.238Z,12.56
2023-05-21T20:01:47.217Z,12.56
2023-05-21T20:04:14.459Z,12.27
2023-05-21T20:06:41.680Z,11.79
2023-05-21T20:09:09.035Z,12.10
2023-05-21T20:11:36.379Z,12.46
2023-05-21T20:14:04.491Z,12.49
2023-05-21T20:16:31.643Z,12.28
2023-05-21T20:19:01.136Z,11.85
2023-05-21T20:21:30.497Z,12.25
2023-05-21T20:23:57.528Z,12.30
2023-05-21T20:26:26.230Z,12.44
2023-05-21T20:28:53.749Z,12.32
2023-05-21T20:31:22.023Z,12.10
2023-05-21T20:33:50.799Z,12.08
2023-05-21T20:36:18.026Z,12.00
2023-05-21T20:38:45.812Z,12.10
2023-05-21T20:41:17.075Z,12.13
2023-05-21T20:43:45.489Z,11.73
2023-05-21T20:46:12.595Z,11.79
2023-05-21T20:48:39.714Z,12.13
2023-05-21T20:51:06.963Z,11.94
2023-05-21T20:53:34.079Z,12.13
2023-05-21T20:56:01.799Z,11.53
2023-05-21T20:58:28.957Z,11.98
2023-05-21T21:00:56.042Z,11.96
2023-05-21T21:03:23.285Z,11.87
2023-05-21T21:05:50.875Z,12.38
2023-05-21T21:08:17.872Z,12.31
2023-05-21T21:10:47.204Z,12.29
2023-05-21T21:13:14.970Z,12.31
2023-05-21T21:15:43.993Z,12.01
2023-05-21T21:18:12.740Z,12.02
2023-05-21T21:20:41.446Z,11.98
2023-05-21T21:23:08.805Z,12.18
2023-05-21T21:25:36.142Z,11.39
2023-05-21T21:28:03.247Z,11.89
2023-05-21T21:30:31.272Z,12.25
2023-05-21T21:32:58.407Z,12.08
2023-05-21T21:35:25.685Z,11.81
2023-05-21T21:37:53.001Z,12.07
2023-05-21T21:40:20.065Z,11.97
2023-05-21T21:42:47.210Z,12.17
2023-05-21T21:45:14.225Z,11.96
2023-05-21T21:47:41.433Z,12.32
2023-05-21T21:50:08.805Z,12.12
2023-05-21T21:52:40.259Z,12.21
2023-05-21T21:55:12.640Z,12.01
2023-05-21T21:58:04.933Z,12.14
2023-05-21T22:00:32.169Z,12.19
2023-05-21T22:02:59.784Z,11.97
2023-05-21T22:05:26.913Z,11.89
2023-05-21T22:07:54.041Z,11.81
2023-05-21T22:10:21.438Z,12.31
2023-05-21T22:12:48.436Z,12.38
2023-05-21T22:15:23.057Z,12.08
2023-05-21T22:17:50.427Z,12.39
2023-05-21T22:20:18.410Z,11.89
2023-05-21T22:22:46.335Z,12.39
2023-05-21T22:25:13.897Z,12.32
2023-05-21T22:27:40.998Z,12.42
2023-05-21T22:30:08.729Z,12.31
2023-05-21T22:32:35.839Z,12.48
2023-05-21T22:35:02.855Z,12.44
2023-05-21T22:37:30.131Z,12.07
2023-05-21T22:40:02.555Z,12.36
2023-05-21T22:42:29.561Z,12.24
2023-05-21T22:44:56.792Z,12.49
2023-05-21T22:47:24.373Z,12.48
2023-05-21T22:49:54.167Z,12.47
2023-05-21T22:52:24.176Z,12.14
2023-05-21T22:54:54.785Z,12.28
2023-05-21T22:57:22.149Z,11.62
2023-05-21T22:59:49.451Z,12.46
2023-05-21T23:02:16.717Z,12.42
2023-05-21T23:04:44.718Z,12.56
2023-05-21T23:07:12.366Z,12.57
2023-05-21T23:09:39.832Z,11.98
2023-05-21T23:12:07.560Z,12.27
2023-05-21T23:14:37.664Z,12.14
2023-05-21T23:17:05.836Z,12.46
2023-05-21T23:19:33.104Z,12.76
2023-05-21T23:22:00.682Z,12.22
2023-05-21T23:24:29.659Z,12.38
2023-05-21T23:27:02.271Z,12.03
2023-05-21T23:29:30.544Z,12.45
2023-05-21T23:31:58.112Z,12.03
2023-05-21T23:34:25.909Z,11.93
2023-05-21T23:36:53.121Z,12.32
2023-05-21T23:39:20.242Z,11.76
2023-05-21T23:41:47.461Z,12.15
2023-05-21T23:44:15.519Z,11.85
2023-05-21T23:46:45.944Z,12.19
2023-05-21T23:49:13.001Z,12.21
2023-05-21T23:51:40.086Z,12.29
2023-05-21T23:54:08.266Z,11.90
2023-05-21T23:56:35.394Z,12.00
2023-05-21T23:59:02.515Z,11.92
